Time;durP1;ratioP1;P1;durP2;ratioP2;P2;SDS_P1;SDS_P2;PMS_P1;PMS_P2;Temp;Humidity;BMP_temperature;BMP_pressure;BME280_temperature;BME280_humidity;BME280_pressure;Samples;Min_cycle;Max_cycle;Signal;HPM_P1;HPM_P2
2023/06/29 00:01:05;;;;;;;69.90;7.50;;;21.80;1.00;;;;;;5088386;28;20488;-85
2023/06/29 00:03:31;;;;;;;73.23;8.70;;;21.80;1.00;;;;;;5088288;28;20406;-85
2023/06/29 00:05:58;;;;;;;73.77;8.37;;;21.80;1.00;;;;;;5070160;28;20430;-85
2023/06/29 00:08:35;;;;;;;74.43;8.10;;;21.70;1.00;;;;;;5088088;28;20555;-85
2023/06/29 00:11:04;;;;;;;70.27;7.40;;;21.70;1.00;;;;;;5063900;28;20413;-85
2023/06/29 00:13:30;;;;;;;69.60;7.30;;;21.80;1.00;;;;;;5080603;28;20398;-84
2023/06/29 00:15:55;;;;;;;72.30;8.00;;;21.70;1.00;;;;;;5081721;28;20394;-84
2023/06/29 00:18:23;;;;;;;69.67;7.53;;;21.70;1.00;;;;;;5081063;28;20905;-84
2023/06/29 00:20:51;;;;;;;70.30;6.87;;;21.60;2.10;;;;;;5081508;28;20171;-84
2023/06/29 00:23:17;;;;;;;74.10;7.27;;;21.60;1.00;;;;;;5062988;28;20478;-84
2023/06/29 00:30:44;;;;;;;73.20;8.20;;;21.70;1.00;;;;;;5040700;28;20498;-84
2023/06/29 00:33:10;;;;;;;71.37;7.20;;;21.70;1.00;;;;;;5026341;28;20416;-83
2023/06/29 00:35:35;;;;;;;69.13;5.70;;;21.70;1.00;;;;;;5026020;28;20530;-84
2023/06/29 00:38:01;;;;;;;73.57;7.10;;;21.70;1.40;;;;;;5044134;28;20423;-84
2023/06/29 00:40:27;;;;;;;71.83;7.00;;;21.70;1.00;;;;;;5026127;28;20173;-84
2023/06/29 00:42:55;;;;;;;75.30;7.67;;;21.70;1.70;;;;;;5043585;28;20173;-84
2023/06/29 00:45:20;;;;;;;69.63;6.97;;;21.60;1.40;;;;;;5025141;28;20443;-84
2023/06/29 00:47:47;;;;;;;69.20;6.97;;;21.60;2.20;;;;;;5042699;28;20412;-84
2023/06/29 00:50:13;;;;;;;72.57;7.47;;;21.60;3.60;;;;;;5043156;28;20181;-84
2023/06/29 00:52:39;;;;;;;72.40;6.60;;;21.50;5.10;;;;;;5042703;28;20543;-84
2023/06/29 00:55:06;;;;;;;71.33;6.47;;;21.40;7.10;;;;;;5042569;28;20764;-84
2023/06/29 00:57:32;;;;;;;70.17;6.27;;;21.40;7.70;;;;;;5042686;28;20416;-84
2023/06/29 01:00:00;;;;;;;71.10;6.63;;;21.30;9.80;;;;;;5043438;28;20403;-84
2023/06/29 01:02:35;;;;;;;74.07;7.50;;;21.20;11.50;;;;;;5043264;28;20404;-84
2023/06/29 01:05:03;;;;;;;71.23;6.47;;;21.20;12.30;;;;;;5044654;28;20386;-84
2023/06/29 01:07:40;;;;;;;70.00;6.40;;;21.20;10.20;;;;;;5047339;28;20424;-83
2023/06/29 01:10:09;;;;;;;72.17;6.73;;;21.20;10.90;;;;;;5030651;28;20467;-84
2023/06/29 01:12:36;;;;;;;69.87;6.60;;;21.20;12.30;;;;;;5048584;28;20408;-84
2023/06/29 01:15:02;;;;;;;71.20;7.43;;;21.10;13.60;;;;;;5047967;28;20402;-84
2023/06/29 01:17:30;;;;;;;71.97;6.40;;;21.10;15.10;;;;;;5046810;28;20448;-84
2023/06/29 01:19:58;;;;;;;72.67;6.80;;;21.10;15.90;;;;;;5047245;28;20403;-84
2023/06/29 01:22:36;;;;;;;72.60;6.43;;;21.20;13.60;;;;;;5029694;28;20410;-84
2023/06/29 01:25:02;;;;;;;70.27;6.10;;;21.20;14.90;;;;;;5048255;28;20416;-84
2023/06/29 01:27:29;;;;;;;73.50;6.97;;;21.20;15.20;;;;;;5046525;28;20423;-84
2023/06/29 01:29:55;;;;;;;69.37;6.37;;;21.10;18.50;;;;;;5047178;28;20456;-84
2023/06/29 01:32:31;;;;;;;73.97;6.67;;;21.00;19.40;;;;;;5046693;28;20907;-84
2023/06/29 01:34:57;;;;;;;71.57;6.97;;;21.00;21.60;;;;;;5046223;28;20373;-84
2023/06/29 01:37:26;;;;;;;71.40;6.40;;;21.00;19.70;;;;;;5028712;28;20480;-84
2023/06/29 01:39:58;;;;;;;73.03;6.77;;;21.00;21.90;;;;;;5027839;28;20197;-84
2023/06/29 01:42:25;;;;;;;69.20;6.40;;;21.00;23.40;;;;;;5045754;28;20385;-84
2023/06/29 01:44:51;;;;;;;72.67;6.93;;;21.00;19.70;;;;;;5046372;28;20400;-84
2023/06/29 01:47:18;;;;;;;70.60;6.40;;;21.10;18.00;;;;;;5046194;28;20433;-84
2023/06/29 01:49:44;;;;;;;75.57;7.40;;;21.20;17.80;;;;;;5038743;28;20558;-84
2023/06/29 01:52:10;;;;;;;70.90;7.70;;;21.10;19.80;;;;;;5034724;28;20404;-84
2023/06/29 01:54:36;;;;;;;70.33;6.80;;;21.10;21.90;;;;;;5034003;28;20411;-84
2023/06/29 01:57:05;;;;;;;73.40;6.47;;;21.10;19.50;;;;;;5034126;28;20428;-84
2023/06/29 01:59:31;;;;;;;70.10;6.87;;;21.00;24.90;;;;;;5034095;28;20200;-84
2023/06/29 02:01:56;;;;;;;70.17;5.90;;;21.00;24.40;;;;;;5034347;28;20404;-83
2023/06/29 02:04:22;;;;;;;72.17;5.67;;;21.00;24.10;;;;;;5054940;22;20285;-80
2023/06/29 02:06:48;;;;;;;70.37;6.97;;;21.10;21.90;;;;;;5075256;28;20163;-79
2023/06/29 02:09:13;;;;;;;72.67;6.43;;;21.10;22.10;;;;;;5074382;28;20200;-79
2023/06/29 02:11:39;;;;;;;69.13;6.30;;;21.10;24.60;;;;;;5074542;28;20527;-79
2023/06/29 02:14:05;;;;;;;70.97;6.20;;;21.10;24.20;;;;;;5074762;28;20243;-79
2023/06/29 02:16:30;;;;;;;69.37;6.07;;;21.10;23.20;;;;;;5056628;28;20164;-80
2023/06/29 02:18:56;;;;;;;68.43;6.23;;;20.90;28.70;;;;;;5076773;28;20752;-80
2023/06/29 02:21:22;;;;;;;69.47;6.57;;;20.80;32.00;;;;;;5060384;28;20179;-79
2023/06/29 02:23:47;;;;;;;69.70;6.43;;;20.80;31.40;;;;;;5078455;28;20217;-80
2023/06/29 02:26:13;;;;;;;70.20;6.70;;;20.80;32.50;;;;;;5078903;28;20631;-79
2023/06/29 02:28:39;;;;;;;72.37;6.27;;;20.70;37.10;;;;;;5060132;28;20195;-79
2023/06/29 02:31:04;;;;;;;70.93;6.60;;;20.70;37.30;;;;;;5078114;28;20168;-80
2023/06/29 02:33:30;;;;;;;71.90;8.13;;;20.60;40.30;;;;;;5060624;28;20258;-80
2023/06/29 02:35:56;;;;;;;70.57;6.87;;;20.70;35.10;;;;;;5060166;28;20160;-80
2023/06/29 02:38:21;;;;;;;68.30;6.00;;;20.80;33.40;;;;;;5077753;28;20241;-80
2023/06/29 02:40:47;;;;;;;70.20;6.70;;;20.80;32.10;;;;;;5059976;28;20260;-79
2023/06/29 02:43:15;;;;;;;69.47;6.50;;;20.80;35.00;;;;;;5077938;28;20152;-79
2023/06/29 02:45:41;;;;;;;68.07;6.80;;;20.80;33.00;;;;;;5059836;28;20168;-79
2023/06/29 02:48:06;;;;;;;70.37;6.90;;;20.70;37.80;;;;;;5077885;28;20978;-80
2023/06/29 02:50:32;;;;;;;70.30;6.57;;;20.70;35.50;;;;;;5059666;28;20521;-80
2023/06/29 02:52:58;;;;;;;73.43;7.53;;;20.80;34.30;;;;;;5077834;28;20164;-79
2023/06/29 02:55:23;;;;;;;71.07;7.07;;;20.80;33.20;;;;;;5077534;28;20206;-80
2023/06/29 02:57:49;;;;;;;69.87;6.87;;;20.80;33.90;;;;;;5077636;28;20180;-79
2023/06/29 03:00:15;;;;;;;68.30;6.30;;;20.80;34.30;;;;;;5077271;28;20156;-80
2023/06/29 03:02:41;;;;;;;69.50;6.30;;;20.80;32.10;;;;;;5059538;28;20601;-79
2023/06/29 03:05:07;;;;;;;70.10;7.40;;;20.80;33.90;;;;;;5077508;28;20452;-80
2023/06/29 03:07:33;;;;;;;70.07;7.23;;;20.80;30.90;;;;;;5077325;28;20184;-80
2023/06/29 03:09:58;;;;;;;70.10;9.07;;;20.80;33.90;;;;;;5077754;28;20540;-80
2023/06/29 03:12:24;;;;;;;70.63;7.60;;;20.80;33.60;;;;;;5078065;28;20460;-80
2023/06/29 03:14:50;;;;;;;68.57;6.50;;;20.90;32.70;;;;;;5076887;28;20247;-79
2023/06/29 03:17:16;;;;;;;68.50;6.30;;;20.90;33.10;;;;;;5077863;28;20177;-79
2023/06/29 03:19:41;;;;;;;69.90;6.80;;;20.90;33.30;;;;;;5077359;28;20511;-79
2023/06/29 03:22:07;;;;;;;68.33;6.20;;;20.80;35.60;;;;;;5076805;28;20912;-80
2023/06/29 03:24:33;;;;;;;69.87;6.83;;;20.80;38.70;;;;;;5077015;28;20168;-79
2023/06/29 03:26:58;;;;;;;68.77;6.80;;;20.80;38.50;;;;;;5059128;28;20170;-80
2023/06/29 03:29:25;;;;;;;73.60;7.30;;;20.80;39.40;;;;;;5058395;28;20670;-79
2023/06/29 03:31:51;;;;;;;69.87;7.27;;;20.80;39.70;;;;;;5076808;28;20160;-79
2023/06/29 03:34:17;;;;;;;70.80;7.30;;;20.80;40.60;;;;;;5058508;28;20750;-80
2023/06/29 03:36:43;;;;;;;69.80;7.60;;;20.80;40.60;;;;;;5058980;28;20161;-79
2023/06/29 03:39:09;;;;;;;72.80;7.70;;;20.80;39.50;;;;;;5076769;28;20441;-80
2023/06/29 03:41:34;;;;;;;70.90;8.53;;;20.80;37.20;;;;;;5076956;28;20174;-79
2023/06/29 03:44:00;;;;;;;69.17;7.30;;;20.80;36.70;;;;;;5058498;28;20175;-80
2023/06/29 03:46:25;;;;;;;73.37;7.73;;;20.80;38.40;;;;;;5058823;28;20164;-79
2023/06/29 03:48:51;;;;;;;69.47;7.53;;;20.80;37.20;;;;;;5076580;28;20210;-79
2023/06/29 03:51:17;;;;;;;68.93;7.60;;;20.70;43.10;;;;;;5076499;28;20214;-80
2023/06/29 03:53:43;;;;;;;71.33;7.70;;;20.70;42.70;;;;;;5076551;28;20159;-79
2023/06/29 03:56:10;;;;;;;70.23;7.83;;;20.70;41.50;;;;;;5076733;28;20234;-80
2023/06/29 03:58:36;;;;;;;69.67;8.27;;;20.70;39.80;;;;;;5058619;28;20235;-80
2023/06/29 04:01:02;;;;;;;70.00;8.10;;;20.80;41.10;;;;;;5058563;28;20786;-80
2023/06/29 04:03:27;;;;;;;70.90;7.97;;;20.80;38.60;;;;;;5076621;28;20405;-80
2023/06/29 04:05:53;;;;;;;71.07;8.73;;;20.80;40.10;;;;;;5076091;28;20187;-80
2023/06/29 04:08:19;;;;;;;71.27;7.60;;;20.80;40.30;;;;;;5058259;28;20277;-79
2023/06/29 04:10:44;;;;;;;73.10;8.20;;;20.80;39.60;;;;;;5075879;28;20177;-80
2023/06/29 04:13:10;;;;;;;69.90;8.20;;;20.80;41.70;;;;;;5076119;28;20171;-79
2023/06/29 04:15:36;;;;;;;69.20;7.90;;;20.70;44.10;;;;;;5075837;28;20168;-80
2023/06/29 04:18:02;;;;;;;70.37;8.80;;;20.60;47.20;;;;;;5076230;28;20214;-80
2023/06/29 04:20:28;;;;;;;70.40;7.50;;;20.60;47.40;;;;;;5057935;28;20171;-80
2023/06/29 04:22:55;;;;;;;69.27;7.33;;;20.50;49.50;;;;;;5076047;28;20163;-80
2023/06/29 04:25:20;;;;;;;70.47;8.00;;;20.50;50.80;;;;;;5076124;28;20897;-79
2023/06/29 04:27:46;;;;;;;73.70;8.30;;;20.60;48.00;;;;;;5075864;28;20420;-79
2023/06/29 04:30:12;;;;;;;71.07;7.67;;;20.70;44.30;;;;;;5075593;28;20659;-80
2023/06/29 04:32:38;;;;;;;70.33;6.90;;;20.70;44.00;;;;;;5058100;28;20167;-80
2023/06/29 04:35:05;;;;;;;69.80;8.50;;;20.80;44.90;;;;;;5076353;28;20425;-80
2023/06/29 04:37:41;;;;;;;71.37;8.20;;;20.80;49.20;;;;;;5075850;28;20441;-80
2023/06/29 04:40:10;;;;;;;70.00;7.90;;;20.70;48.40;;;;;;5057529;28;20456;-80
2023/06/29 04:42:47;;;;;;;70.80;8.30;;;20.80;46.80;;;;;;5057600;28;20414;-79
2023/06/29 04:45:20;;;;;;;72.00;6.93;;;20.80;47.00;;;;;;5042137;28;20401;-79
2023/06/29 04:47:47;;;;;;;72.00;7.43;;;20.80;50.10;;;;;;5075779;28;20568;-80
2023/06/29 04:50:13;;;;;;;68.10;7.63;;;20.90;45.90;;;;;;5075789;28;20437;-79
2023/06/29 04:52:40;;;;;;;69.83;7.70;;;20.80;48.40;;;;;;5057253;28;20402;-79
2023/06/29 04:55:07;;;;;;;68.77;8.00;;;20.90;47.90;;;;;;5075288;28;20409;-80
2023/06/29 04:57:33;;;;;;;68.60;8.13;;;20.90;49.40;;;;;;5075450;28;20422;-80
2023/06/29 04:59:58;;;;;;;71.07;8.07;;;20.80;51.80;;;;;;5075265;28;20767;-80
2023/06/29 05:02:24;;;;;;;70.37;8.00;;;20.90;48.10;;;;;;5075320;28;20627;-79
2023/06/29 05:04:50;;;;;;;70.77;7.70;;;21.00;47.90;;;;;;5057523;28;20198;-81
2023/06/29 05:07:16;;;;;;;78.27;8.23;;;21.00;51.70;;;;;;5059879;28;20434;-81
2023/06/29 05:09:42;;;;;;;72.00;8.43;;;21.00;49.00;;;;;;5077254;28;20659;-81
2023/06/29 05:12:09;;;;;;;74.27;8.87;;;21.10;51.10;;;;;;5077250;28;20409;-81
2023/06/29 05:14:34;;;;;;;70.80;7.77;;;21.10;49.10;;;;;;5077602;28;20160;-80
2023/06/29 05:17:00;;;;;;;69.37;8.70;;;21.10;48.40;;;;;;5077700;28;20912;-81
2023/06/29 05:19:26;;;;;;;72.90;8.97;;;21.20;47.00;;;;;;5077355;28;20160;-81
2023/06/29 05:21:51;;;;;;;70.50;8.00;;;21.30;50.10;;;;;;5058989;28;20643;-82
2023/06/29 05:24:17;;;;;;;68.80;7.13;;;21.20;48.40;;;;;;5076983;28;20219;-82
2023/06/29 05:26:43;;;;;;;77.03;8.37;;;21.20;48.40;;;;;;5058640;28;20654;-82
2023/06/29 05:29:08;;;;;;;70.17;8.13;;;21.30;46.70;;;;;;5076505;28;20188;-82
2023/06/29 05:31:34;;;;;;;71.97;8.17;;;21.50;45.10;;;;;;5059229;28;20604;-82
2023/06/29 05:34:00;;;;;;;70.87;6.73;;;21.60;39.10;;;;;;5077073;28;20594;-81
2023/06/29 05:36:26;;;;;;;70.60;7.27;;;21.60;32.40;;;;;;5077732;28;20519;-82
2023/06/29 05:38:52;;;;;;;76.90;7.97;;;21.60;29.50;;;;;;5078115;28;20551;-82
2023/06/29 05:41:18;;;;;;;72.23;6.20;;;21.60;29.80;;;;;;5077896;28;20406;-82
2023/06/29 05:43:43;;;;;;;70.07;7.53;;;21.50;30.90;;;;;;5078257;28;20187;-82
2023/06/29 05:46:09;;;;;;;72.07;6.50;;;21.50;31.00;;;;;;5060317;28;20433;-82
2023/06/29 05:48:35;;;;;;;73.20;6.60;;;21.50;32.30;;;;;;5077483;28;20198;-82
2023/06/29 05:51:00;;;;;;;74.80;6.50;;;21.50;34.10;;;;;;5078517;28;20164;-82
2023/06/29 05:53:26;;;;;;;68.87;5.83;;;21.50;32.40;;;;;;5078589;28;20168;-81
2023/06/29 05:55:52;;;;;;;71.30;7.27;;;21.50;32.50;;;;;;5061162;28;20222;-81
2023/06/29 05:58:17;;;;;;;71.13;7.67;;;21.50;39.60;;;;;;5079588;28;20194;-81
2023/06/29 06:00:44;;;;;;;74.67;7.40;;;21.50;34.90;;;;;;5079503;28;20164;-80
2023/06/29 06:03:11;;;;;;;70.97;7.00;;;21.60;34.90;;;;;;5061295;28;20179;-81
2023/06/29 06:05:37;;;;;;;70.13;6.57;;;21.70;31.40;;;;;;5078761;28;20425;-80
2023/06/29 06:08:03;;;;;;;71.67;6.53;;;21.70;30.00;;;;;;5078785;28;20422;-80
2023/06/29 06:10:28;;;;;;;71.17;6.53;;;21.80;28.60;;;;;;5060744;28;20188;-81
2023/06/29 06:12:54;;;;;;;77.93;6.60;;;21.70;27.20;;;;;;5079387;28;20611;-80
2023/06/29 06:15:20;;;;;;;79.00;7.00;;;21.60;28.70;;;;;;5084283;28;20168;-80
2023/06/29 06:17:45;;;;;;;71.60;6.30;;;21.60;30.00;;;;;;5084746;28;20180;-80
2023/06/29 06:20:11;;;;;;;73.97;6.40;;;21.60;27.80;;;;;;5063417;28;20172;-79
2023/06/29 06:22:37;;;;;;;72.63;7.00;;;21.70;27.60;;;;;;5083411;28;20164;-79
2023/06/29 06:25:03;;;;;;;75.00;7.37;;;21.60;26.80;;;;;;5083620;28;20425;-79
2023/06/29 06:27:29;;;;;;;72.17;6.93;;;21.70;27.20;;;;;;5083372;28;20187;-80
2023/06/29 06:29:55;;;;;;;69.10;6.60;;;21.80;24.40;;;;;;5065103;28;20547;-80
2023/06/29 06:32:24;;;;;;;72.90;6.27;;;21.80;27.60;;;;;;5066669;28;20473;-80
2023/06/29 06:34:50;;;;;;;71.53;5.97;;;22.00;23.10;;;;;;5084160;28;20164;-79
2023/06/29 06:37:16;;;;;;;78.28;7.10;;;22.20;22.60;;;;;;5083705;28;20406;-79
2023/06/29 06:39:42;;;;;;;74.90;5.93;;;22.30;21.90;;;;;;5066022;28;20183;-80
2023/06/29 06:42:07;;;;;;;70.40;5.40;;;22.30;15.60;;;;;;5066293;28;20211;-80
2023/06/29 06:44:35;;;;;;;69.40;5.47;;;22.40;15.50;;;;;;5065611;28;20172;-79
2023/06/29 06:47:01;;;;;;;75.13;6.30;;;22.50;12.80;;;;;;5083970;28;20178;-80
2023/06/29 06:49:26;;;;;;;69.20;5.50;;;22.60;11.60;;;;;;5083530;28;20517;-81
2023/06/29 06:51:52;;;;;;;70.47;5.27;;;22.70;9.30;;;;;;5064762;28;20624;-79
2023/06/29 06:54:18;;;;;;;82.63;6.77;;;22.60;4.60;;;;;;5066176;28;20180;-80
2023/06/29 06:56:43;;;;;;;71.37;5.10;;;22.60;7.40;;;;;;5084287;28;20160;-79
2023/06/29 06:59:09;;;;;;;73.43;5.33;;;22.60;4.50;;;;;;5082928;28;20199;-80
2023/06/29 07:01:40;;;;;;;69.73;5.27;;;22.70;3.00;;;;;;5083128;28;20193;-80
2023/06/29 07:04:05;;;;;;;71.17;6.40;;;22.70;1.00;;;;;;5064541;28;20197;-80
2023/06/29 07:06:33;;;;;;;75.13;5.20;;;22.80;1.00;;;;;;5082896;28;20906;-80
2023/06/29 07:08:59;;;;;;;72.10;5.33;;;22.90;1.00;;;;;;5083050;28;20242;-80
2023/06/29 07:11:25;;;;;;;70.10;5.00;;;23.00;1.00;;;;;;5065228;28;20774;-80
2023/06/29 07:13:51;;;;;;;70.67;5.60;;;23.20;1.00;;;;;;5065277;28;20240;-80
2023/06/29 07:16:17;;;;;;;73.80;7.03;;;23.30;1.00;;;;;;5083688;28;20409;-81
2023/06/29 07:19:04;;;;;;;77.90;7.60;;;23.30;1.00;;;;;;5084428;28;20188;-81
2023/06/29 07:21:29;;;;;;;75.43;6.87;;;23.20;1.00;;;;;;5087515;28;20215;-81
2023/06/29 07:23:55;;;;;;;72.03;5.33;;;23.30;1.00;;;;;;5086938;28;20394;-81
2023/06/29 07:26:22;;;;;;;68.97;6.90;;;23.50;1.00;;;;;;5070384;28;20169;-81
2023/06/29 07:28:48;;;;;;;71.63;9.10;;;23.60;1.00;;;;;;5088658;28;20448;-81
2023/06/29 07:31:15;;;;;;;71.93;9.27;;;23.80;1.00;;;;;;5068119;28;20453;-81
2023/06/29 07:33:41;;;;;;;71.77;7.50;;;23.70;1.00;;;;;;5086300;28;20399;-81
2023/06/29 07:36:07;;;;;;;68.10;6.30;;;23.60;1.00;;;;;;5087329;28;20474;-81
2023/06/29 07:38:33;;;;;;;74.07;6.73;;;23.50;1.00;;;;;;5069453;28;20422;-81
2023/06/29 07:40:59;;;;;;;71.60;9.60;;;23.70;1.00;;;;;;5066459;28;20881;-81
2023/06/29 07:43:24;;;;;;;69.47;7.77;;;23.50;1.00;;;;;;5067612;28;20172;-81
2023/06/29 07:45:50;;;;;;;73.00;5.70;;;23.30;1.00;;;;;;5085057;28;20172;-81
2023/06/29 07:48:17;;;;;;;70.63;6.97;;;23.40;1.00;;;;;;5086344;28;20188;-81
2023/06/29 07:50:42;;;;;;;74.53;8.33;;;23.40;1.00;;;;;;5085740;28;20190;-81
2023/06/29 07:53:08;;;;;;;74.07;9.03;;;23.40;1.00;;;;;;5085894;28;20404;-81
2023/06/29 07:55:34;;;;;;;73.40;9.00;;;23.60;1.00;;;;;;5084771;28;20161;-81
2023/06/29 07:58:00;;;;;;;70.10;9.33;;;23.80;1.00;;;;;;5085097;28;20192;-81
2023/06/29 08:00:26;;;;;;;70.37;7.40;;;23.80;1.00;;;;;;5084665;28;20390;-81
2023/06/29 08:02:51;;;;;;;72.57;10.13;;;23.80;1.00;;;;;;5084596;28;20399;-81
2023/06/29 08:05:17;;;;;;;74.70;10.13;;;23.80;1.00;;;;;;5154047;22;20227;-79
2023/06/29 08:07:43;;;;;;;68.60;6.00;;;23.80;1.00;;;;;;5075318;28;20561;-78
2023/06/29 08:10:09;;;;;;;69.37;6.97;;;23.80;1.00;;;;;;5057567;28;20195;-78
2023/06/29 08:12:35;;;;;;;72.67;6.30;;;23.90;1.00;;;;;;5075311;28;20161;-78
2023/06/29 08:15:00;;;;;;;75.67;10.80;;;23.80;1.00;;;;;;5075882;28;20742;-78
2023/06/29 08:17:29;;;;;;;73.70;7.90;;;23.80;1.00;;;;;;5075320;28;20263;-78
2023/06/29 08:19:54;;;;;;;71.47;8.50;;;23.70;1.00;;;;;;5075593;28;20218;-78
2023/06/29 08:22:20;;;;;;;73.10;7.77;;;23.70;1.00;;;;;;5075806;28;20407;-78
2023/06/29 08:24:46;;;;;;;71.83;7.77;;;23.80;1.00;;;;;;5075587;28;20164;-79
2023/06/29 08:27:11;;;;;;;71.37;7.97;;;24.00;1.00;;;;;;5075250;28;20195;-78
2023/06/29 08:29:40;;;;;;;70.97;10.00;;;24.30;1.00;;;;;;5075287;28;20596;-78
2023/06/29 08:32:09;;;;;;;77.93;13.30;;;24.30;1.00;;;;;;5075311;28;20167;-78
2023/06/29 08:34:35;;;;;;;78.60;13.70;;;24.40;1.00;;;;;;5074830;28;20395;-79
2023/06/29 08:37:01;;;;;;;74.87;14.87;;;24.60;1.00;;;;;;5074744;28;20538;-78
2023/06/29 08:39:26;;;;;;;81.13;19.50;;;24.80;1.00;;;;;;5074717;28;20490;-78
2023/06/29 08:41:52;;;;;;;74.30;20.67;;;24.80;1.00;;;;;;5056814;28;20207;-79
2023/06/29 08:44:19;;;;;;;74.70;15.90;;;24.90;1.00;;;;;;5056852;28;20177;-79
2023/06/29 08:46:47;;;;;;;72.90;19.30;;;25.10;1.00;;;;;;5074703;28;20401;-79
2023/06/29 08:49:15;;;;;;;77.07;29.37;;;25.30;1.00;;;;;;5074862;28;20504;-78
2023/06/29 08:51:46;;;;;;;78.73;31.00;;;25.10;1.00;;;;;;5075205;28;20534;-79
2023/06/29 08:54:12;;;;;;;79.87;29.97;;;25.20;1.00;;;;;;5075086;28;20389;-79
2023/06/29 08:56:38;;;;;;;79.97;28.17;;;25.50;1.00;;;;;;5074725;28;20413;-79
2023/06/29 08:59:04;;;;;;;81.63;30.03;;;25.50;1.00;;;;;;5074721;28;20835;-79
2023/06/29 09:01:31;;;;;;;80.87;26.27;;;25.50;1.00;;;;;;5074801;28;20410;-79
2023/06/29 09:03:57;;;;;;;85.43;32.57;;;25.60;1.00;;;;;;5075008;28;20413;-79
2023/06/29 09:06:23;;;;;;;79.87;29.03;;;25.90;1.00;;;;;;5074902;28;20813;-79
2023/06/29 09:08:49;;;;;;;80.57;27.77;;;25.90;1.00;;;;;;5074590;28;20438;-79
2023/06/29 09:11:15;;;;;;;79.60;14.70;;;26.20;1.00;;;;;;5074519;28;20415;-79
2023/06/29 09:13:40;;;;;;;73.40;15.50;;;26.30;1.00;;;;;;5074835;28;20409;-79
2023/06/29 09:16:06;;;;;;;79.77;16.00;;;26.20;1.00;;;;;;5075342;28;20172;-79
2023/06/29 09:18:32;;;;;;;74.17;11.70;;;26.30;1.00;;;;;;5074754;28;20229;-79
2023/06/29 09:20:58;;;;;;;72.17;10.60;;;26.00;1.00;;;;;;5074579;28;20653;-79
2023/06/29 09:23:30;;;;;;;74.43;9.97;;;26.20;1.00;;;;;;5074650;28;20677;-79
2023/06/29 09:25:56;;;;;;;72.37;10.00;;;26.30;1.00;;;;;;5074859;28;20468;-79
2023/06/29 09:28:22;;;;;;;77.37;8.73;;;26.30;1.00;;;;;;5073816;28;20929;-79
2023/06/29 09:30:51;;;;;;;76.13;8.80;;;26.60;1.00;;;;;;5074645;28;20442;-79
2023/06/29 09:33:16;;;;;;;73.47;9.50;;;26.70;1.00;;;;;;5074571;28;20243;-79
2023/06/29 09:35:51;;;;;;;75.77;8.20;;;26.80;1.00;;;;;;5056384;28;20838;-79
2023/06/29 09:38:17;;;;;;;73.07;8.13;;;27.00;1.00;;;;;;5074592;28;20179;-79
2023/06/29 09:41:02;;;;;;;73.00;11.17;;;26.70;1.00;;;;;;5074653;28;20478;-79
2023/06/29 09:43:29;;;;;;;74.13;9.53;;;26.80;1.00;;;;;;5056635;28;20188;-79
2023/06/29 09:46:07;;;;;;;73.60;8.20;;;27.00;1.00;;;;;;5075087;28;20430;-79
2023/06/29 09:48:43;;;;;;;74.93;8.40;;;27.10;1.00;;;;;;5074279;28;20517;-80
2023/06/29 09:51:09;;;;;;;75.57;8.97;;;27.50;1.00;;;;;;5056672;28;20971;-79
2023/06/29 09:53:35;;;;;;;76.47;9.03;;;27.50;1.00;;;;;;5074376;28;20402;-79
2023/06/29 09:56:02;;;;;;;73.40;8.73;;;27.50;1.00;;;;;;5074071;28;20626;-79
2023/06/29 09:58:29;;;;;;;71.80;8.70;;;27.40;1.00;;;;;;5074178;28;20172;-79
2023/06/29 10:00:58;;;;;;;72.70;9.50;;;27.50;1.00;;;;;;5074033;28;20497;-79
2023/06/29 10:03:26;;;;;;;76.27;9.23;;;27.70;1.00;;;;;;5056658;28;20403;-79
2023/06/29 10:05:56;;;;;;;73.30;8.60;;;28.00;1.00;;;;;;5056302;28;20789;-79
2023/06/29 10:08:27;;;;;;;73.37;9.07;;;27.90;1.00;;;;;;5074225;28;20780;-79
2023/06/29 10:11:00;;;;;;;72.53;10.03;;;27.80;1.00;;;;;;5056076;28;20430;-79
2023/06/29 10:13:27;;;;;;;74.20;10.47;;;27.90;1.00;;;;;;5074043;28;20464;-79
2023/06/29 10:15:54;;;;;;;72.73;9.37;;;28.20;1.00;;;;;;5074293;28;20743;-79
2023/06/29 10:18:28;;;;;;;69.57;7.83;;;28.10;1.00;;;;;;5056563;28;20442;-79
2023/06/29 10:20:55;;;;;;;74.30;11.10;;;28.00;1.00;;;;;;5073953;28;20417;-79
2023/06/29 10:23:22;;;;;;;75.33;9.33;;;28.00;1.00;;;;;;5074090;28;21092;-79
2023/06/29 10:25:50;;;;;;;73.43;8.87;;;27.90;1.00;;;;;;5074285;28;20398;-79
2023/06/29 10:28:18;;;;;;;72.70;8.30;;;27.90;1.00;;;;;;5056120;28;20437;-79
2023/06/29 10:30:45;;;;;;;71.07;7.80;;;27.80;1.00;;;;;;5073922;28;20434;-79
2023/06/29 10:33:11;;;;;;;72.13;8.40;;;27.70;1.00;;;;;;5073939;28;20818;-79
2023/06/29 10:35:37;;;;;;;73.57;9.30;;;27.40;1.00;;;;;;5055876;28;20438;-79
2023/06/29 10:38:10;;;;;;;72.13;10.23;;;27.20;1.00;;;;;;5055998;28;20216;-79
2023/06/29 10:40:48;;;;;;;74.40;10.63;;;27.00;1.00;;;;;;5076896;28;20570;-79
2023/06/29 10:43:14;;;;;;;74.50;7.73;;;26.80;1.00;;;;;;5077885;28;20390;-79
2023/06/29 10:45:40;;;;;;;72.73;7.27;;;26.60;1.00;;;;;;5078059;28;20398;-79
2023/06/29 10:48:09;;;;;;;75.17;8.37;;;26.50;1.00;;;;;;5077693;28;20418;-78
2023/06/29 10:50:47;;;;;;;71.50;8.80;;;26.30;1.00;;;;;;5077218;28;20805;-79
2023/06/29 10:53:15;;;;;;;71.80;7.97;;;26.30;1.00;;;;;;5077355;28;20382;-79
2023/06/29 10:55:53;;;;;;;73.20;8.00;;;26.30;1.00;;;;;;5077128;28;20422;-79
2023/06/29 10:58:35;;;;;;;70.90;8.20;;;26.20;1.00;;;;;;5076970;28;20418;-79
2023/06/29 11:01:01;;;;;;;74.57;8.90;;;26.10;1.00;;;;;;5077710;28;20913;-78
2023/06/29 11:03:27;;;;;;;72.07;9.57;;;26.30;1.00;;;;;;5077894;28;20401;-78
2023/06/29 11:05:55;;;;;;;80.70;12.17;;;26.10;1.00;;;;;;5077547;28;20836;-78
2023/06/29 11:08:22;;;;;;;79.90;15.57;;;26.00;1.00;;;;;;5077002;28;20432;-79
2023/06/29 11:10:48;;;;;;;77.00;12.80;;;26.10;1.00;;;;;;5077240;28;20897;-79
2023/06/29 11:13:17;;;;;;;75.37;12.87;;;26.10;1.00;;;;;;5077106;28;20409;-79
2023/06/29 11:15:44;;;;;;;76.07;14.27;;;26.30;1.00;;;;;;5076975;28;20512;-79
2023/06/29 11:18:10;;;;;;;77.17;13.77;;;26.50;1.00;;;;;;5076789;28;20419;-79
2023/06/29 11:20:39;;;;;;;73.67;11.27;;;26.70;1.00;;;;;;5058627;28;20414;-79
2023/06/29 11:23:07;;;;;;;75.83;10.47;;;26.90;1.00;;;;;;5058802;28;20518;-79
2023/06/29 11:25:33;;;;;;;79.17;12.97;;;27.10;1.00;;;;;;5076753;28;20413;-79
2023/06/29 11:27:59;;;;;;;75.30;12.63;;;27.30;1.00;;;;;;5076758;28;20509;-79
2023/06/29 11:30:25;;;;;;;79.90;11.07;;;27.40;1.00;;;;;;5076689;28;20517;-79
2023/06/29 11:32:52;;;;;;;78.43;11.40;;;27.50;1.00;;;;;;5076943;28;20167;-79
2023/06/29 11:35:22;;;;;;;73.60;10.37;;;27.60;1.00;;;;;;5076477;28;20394;-79
2023/06/29 11:37:57;;;;;;;77.50;12.07;;;27.60;1.00;;;;;;5076113;28;20881;-76
2023/06/29 11:40:26;;;;;;;77.03;12.67;;;27.90;1.00;;;;;;5075208;28;20420;-77
2023/06/29 11:42:53;;;;;;;73.47;10.70;;;28.10;1.00;;;;;;5075194;28;20402;-77
2023/06/29 11:45:20;;;;;;;76.57;11.97;;;28.20;1.00;;;;;;5075206;28;20460;-77
2023/06/29 11:47:53;;;;;;;76.30;12.20;;;28.30;1.00;;;;;;5056929;28;20522;-77
2023/06/29 11:50:18;;;;;;;74.60;11.00;;;28.50;1.00;;;;;;5074484;28;20430;-77
2023/06/29 11:52:45;;;;;;;79.03;11.40;;;28.40;1.00;;;;;;5074592;28;20922;-77
2023/06/29 11:55:15;;;;;;;77.97;10.27;;;28.40;1.00;;;;;;5074850;28;20167;-77
2023/06/29 11:57:43;;;;;;;77.17;10.90;;;28.20;1.00;;;;;;5075185;28;20461;-77
2023/06/29 12:00:30;;;;;;;74.77;11.00;;;28.10;1.00;;;;;;5075248;28;20401;-77
2023/06/29 12:02:57;;;;;;;75.77;12.30;;;28.10;1.00;;;;;;5057034;28;20473;-77
2023/06/29 12:05:29;;;;;;;73.40;10.47;;;28.10;1.00;;;;;;5074805;28;20943;-77
2023/06/29 12:08:03;;;;;;;75.60;12.03;;;28.00;1.00;;;;;;5074623;28;20525;-77
2023/06/29 12:10:28;;;;;;;75.47;11.80;;;27.90;1.00;;;;;;5074737;28;20422;-77
2023/06/29 12:12:59;;;;;;;74.60;11.33;;;27.80;1.00;;;;;;5056871;28;20439;-76
2023/06/29 12:15:26;;;;;;;78.93;12.73;;;27.70;1.00;;;;;;5074630;28;20227;-76
2023/06/29 12:17:58;;;;;;;77.07;11.83;;;27.70;1.00;;;;;;5074451;28;20429;-77
2023/06/29 12:20:24;;;;;;;75.93;12.13;;;27.50;1.00;;;;;;5075312;28;20885;-77
2023/06/29 12:22:54;;;;;;;76.10;12.20;;;27.40;1.00;;;;;;5074484;28;20761;-77
2023/06/29 12:25:20;;;;;;;75.67;12.30;;;27.30;1.00;;;;;;5056464;28;21008;-77
2023/06/29 12:27:48;;;;;;;75.10;13.13;;;27.20;1.00;;;;;;5074453;28;20920;-77
2023/06/29 12:30:16;;;;;;;76.30;11.57;;;27.10;1.00;;;;;;5074115;28;20922;-77
2023/06/29 12:32:45;;;;;;;74.60;13.00;;;27.10;1.00;;;;;;5074429;28;20497;-77
2023/06/29 12:35:14;;;;;;;77.30;12.17;;;27.10;1.00;;;;;;5074104;28;20391;-79
2023/06/29 12:37:40;;;;;;;75.17;11.00;;;27.10;1.00;;;;;;5074887;28;20463;-79
2023/06/29 12:40:07;;;;;;;75.07;9.67;;;26.90;1.00;;;;;;5075605;28;20398;-79
2023/06/29 12:42:33;;;;;;;76.80;11.00;;;26.80;1.00;;;;;;5075267;28;20909;-79
2023/06/29 12:45:00;;;;;;;75.47;12.10;;;26.70;1.00;;;;;;5075370;28;20456;-79